Time;durP1;ratioP1;P1;durP2;ratioP2;P2;SDS_P1;SDS_P2;PMS_P1;PMS_P2;Temp;Humidity;BMP_temperature;BMP_pressure;BME280_temperature;BME280_humidity;BME280_pressure;Samples;Min_cycle;Max_cycle;Signal;HPM_P1;HPM_P2
2022/07/26 00:00:13;;;;;;;;;;;;;;;24.28;46.59;99604.84;1088006;54;19951;-83
2022/07/26 00:01:17;;;;;;;;;;;;;;;24.33;46.04;99596.78;1087938;54;19950;-83
2022/07/26 00:02:24;;;;;;;;;;;;;;;24.27;46.70;99600.50;1087914;54;19949;-84
2022/07/26 00:03:25;;;;;;;;;;;;;;;24.29;46.43;99601.06;1088050;54;19943;-83
2022/07/26 00:04:29;;;;;;;;;;;;;;;24.27;46.67;99600.50;1087987;54;19969;-83
2022/07/26 00:05:30;;;;;;;;;;;;;;;24.24;46.87;99593.59;1088917;39;20553;-82
2022/07/26 00:06:34;;;;;;;;;;;;;;;24.27;46.71;99603.22;1088061;54;20651;-83
2022/07/26 00:07:35;;;;;;;;;;;;;;;24.32;46.58;99599.75;1087916;54;20695;-84
2022/07/26 00:08:39;;;;;;;;;;;;;;;24.30;46.66;99609.03;1087943;54;19949;-84
2022/07/26 00:09:43;;;;;;;;;;;;;;;24.21;46.89;99607.78;1089083;39;20455;-82
2022/07/26 00:10:45;;;;;;;;;;;;;;;24.18;47.23;99610.16;1088004;54;19974;-83
2022/07/26 00:11:49;;;;;;;;;;;;;;;24.25;46.72;99611.66;1087987;54;19947;-82
2022/07/26 00:12:50;;;;;;;;;;;;;;;24.34;46.62;99612.09;1087931;54;19942;-85
2022/07/26 00:13:54;;;;;;;;;;;;;;;24.33;47.07;99618.63;1087997;54;19943;-82
2022/07/26 00:14:55;;;;;;;;;;;;;;;24.29;46.99;99618.28;1087981;54;20601;-83
2022/07/26 00:15:59;;;;;;;;;;;;;;;24.29;47.38;99611.97;1087930;54;19942;-82
2022/07/26 00:17:01;;;;;;;;;;;;;;;24.29;47.17;99618.28;1087974;54;19974;-83
2022/07/26 00:19:12;;;;;;;;;;;;;;;24.30;47.06;99613.63;1088029;54;19943;-87
2022/07/26 00:20:13;;;;;;;;;;;;;;;24.33;47.35;99615.03;1088075;54;19943;-87
2022/07/26 00:21:17;;;;;;;;;;;;;;;24.21;47.19;99626.03;1088089;54;19954;-88
2022/07/26 00:22:33;;;;;;;;;;;;;;;24.23;47.11;99623.91;1088170;54;19958;-86
2022/07/26 00:23:37;;;;;;;;;;;;;;;24.21;47.52;99620.56;1088460;39;20493;-85
2022/07/26 00:24:38;;;;;;;;;;;;;;;24.20;47.23;99613.44;1088165;54;19942;-86
2022/07/26 00:25:42;;;;;;;;;;;;;;;24.25;47.40;99619.03;1088123;54;19942;-87
2022/07/26 00:26:44;;;;;;;;;;;;;;;24.18;47.23;99615.63;1090111;39;20827;-87
2022/07/26 00:27:48;;;;;;;;;;;;;;;24.22;47.27;99623.09;1088085;54;19995;-87
2022/07/26 00:28:50;;;;;;;;;;;;;;;24.13;47.64;99622.63;1088091;54;19942;-87
2022/07/26 00:29:54;;;;;;;;;;;;;;;24.17;47.41;99631.16;1088226;54;19943;-87
2022/07/26 00:30:55;;;;;;;;;;;;;;;24.12;47.36;99631.09;1088216;54;19946;-87
2022/07/26 00:31:59;;;;;;;;;;;;;;;24.08;47.69;99618.97;1088345;54;19949;-84
2022/07/26 00:33:00;;;;;;;;;;;;;;;24.09;47.36;99615.19;1087972;54;19949;-86
2022/07/26 00:34:04;;;;;;;;;;;;;;;24.12;47.07;99612.78;1093892;39;20557;-86
2022/07/26 00:35:08;;;;;;;;;;;;;;;24.27;46.80;99609.50;1088246;54;19942;-86
2022/07/26 00:36:12;;;;;;;;;;;;;;;24.28;46.38;99604.84;1088962;46;19957;-87
2022/07/26 00:37:14;;;;;;;;;;;;;;;24.27;46.07;99605.97;1088238;54;20578;-87
2022/07/26 00:38:18;;;;;;;;;;;;;;;24.23;46.21;99610.25;1088231;54;19934;-86
2022/07/26 00:39:19;;;;;;;;;;;;;;;24.20;46.37;99616.19;1088310;54;19942;-86
2022/07/26 00:41:26;;;;;;;;;;;;;;;24.18;46.09;99616.44;1084221;54;19951;-78
2022/07/26 00:42:27;;;;;;;;;;;;;;;24.25;45.97;99611.66;1084507;54;19947;-78
2022/07/26 00:43:31;;;;;;;;;;;;;;;24.34;45.81;99605.78;1084038;54;20037;-78
2022/07/26 00:44:36;;;;;;;;;;;;;;;24.33;45.71;99610.44;1083893;54;20616;-77
2022/07/26 00:45:39;;;;;;;;;;;;;;;24.33;45.72;99613.16;1084041;54;19950;-78
2022/07/26 00:46:41;;;;;;;;;;;;;;;24.34;45.28;99612.09;1083676;54;19947;-77
2022/07/26 00:47:44;;;;;;;;;;;;;;;24.26;45.51;99609.75;1083666;54;19969;-76
2022/07/26 00:48:45;;;;;;;;;;;;;;;24.22;46.09;99608.59;1084147;46;19946;-77
2022/07/26 00:49:49;;;;;;;;;;;;;;;24.22;46.15;99611.31;1083482;54;19974;-78
2022/07/26 00:50:54;;;;;;;;;;;;;;;24.13;46.45;99608.16;1083824;54;19958;-76
2022/07/26 00:51:58;;;;;;;;;;;;;;;24.12;46.43;99611.97;1083692;54;19946;-76
2022/07/26 00:52:59;;;;;;;;;;;;;;;24.04;46.82;99615.91;1083766;54;19947;-77
2022/07/26 00:54:02;;;;;;;;;;;;;;;24.03;47.02;99614.25;1083618;54;19953;-77
2022/07/26 00:55:05;;;;;;;;;;;;;;;23.92;47.26;99612.38;1083550;54;20038;-77
2022/07/26 00:56:09;;;;;;;;;;;;;;;23.98;46.99;99612.25;1084154;39;20040;-77
2022/07/26 00:57:10;;;;;;;;;;;;;;;24.03;47.28;99616.97;1083670;54;19958;-77
2022/07/26 00:58:13;;;;;;;;;;;;;;;24.03;47.18;99629.81;1083444;54;19957;-77
2022/07/26 00:59:14;;;;;;;;;;;;;;;23.96;47.56;99629.97;1083693;54;19947;-77
2022/07/26 01:00:19;;;;;;;;;;;;;;;23.96;47.59;99621.78;1083996;39;20344;-77
2022/07/26 01:01:20;;;;;;;;;;;;;;;23.99;47.54;99629.47;1083769;54;20452;-77
2022/07/26 01:02:24;;;;;;;;;;;;;;;23.95;47.30;99636.47;1084799;54;20046;-77
2022/07/26 01:03:25;;;;;;;;;;;;;;;23.93;47.41;99627.66;1084603;39;20432;-78
2022/07/26 01:04:29;;;;;;;;;;;;;;;23.97;47.58;99621.50;1084179;54;19954;-76
2022/07/26 01:05:31;;;;;;;;;;;;;;;23.89;47.67;99630.06;1084427;54;19945;-78
2022/07/26 01:06:37;;;;;;;;;;;;;;;23.90;47.48;99628.19;1084239;54;19977;-78
2022/07/26 01:07:38;;;;;;;;;;;;;;;23.84;47.60;99622.59;1083519;54;19950;-77
2022/07/26 01:08:42;;;;;;;;;;;;;;;23.82;47.91;99621.19;1083711;54;20430;-77
2022/07/26 01:09:43;;;;;;;;;;;;;;;23.82;47.71;99632.13;1083666;54;19946;-77
2022/07/26 01:10:47;;;;;;;;;;;;;;;23.80;47.81;99621.44;1083793;54;19951;-77
2022/07/26 01:11:48;;;;;;;;;;;;;;;23.72;47.81;99624.53;1083489;54;19946;-78
2022/07/26 01:12:52;;;;;;;;;;;;;;;23.71;48.01;99628.34;1083680;54;19974;-76
2022/07/26 01:13:53;;;;;;;;;;;;;;;23.72;47.86;99637.38;1083652;54;19946;-77
2022/07/26 01:14:57;;;;;;;;;;;;;;;23.71;48.12;99636.53;1083784;54;19951;-78
2022/07/26 01:15:58;;;;;;;;;;;;;;;23.64;48.28;99649.47;1083879;54;19958;-77
2022/07/26 01:17:01;;;;;;;;;;;;;;;23.67;48.11;99646.28;1084630;39;20421;-77
2022/07/26 01:18:03;;;;;;;;;;;;;;;23.66;48.35;99647.34;1084661;39;20771;-76
2022/07/26 01:19:06;;;;;;;;;;;;;;;23.71;48.01;99646.63;1084098;54;19951;-78
2022/07/26 01:20:09;;;;;;;;;;;;;;;23.70;47.89;99644.97;1083901;54;19974;-78
2022/07/26 01:21:13;;;;;;;;;;;;;;;23.77;47.61;99642.91;1084282;54;19951;-78
2022/07/26 01:22:17;;;;;;;;;;;;;;;23.69;47.80;99644.13;1084069;54;20037;-78
2022/07/26 01:23:21;;;;;;;;;;;;;;;23.76;47.59;99635.78;1083962;54;20034;-77
2022/07/26 01:24:22;;;;;;;;;;;;;;;23.78;47.07;99634.50;1084030;54;19947;-78
2022/07/26 01:25:32;;;;;;;;;;;;;;;23.84;47.09;99628.06;1084188;54;20045;-77
2022/07/26 01:26:33;;;;;;;;;;;;;;;23.82;46.92;99635.66;1084060;54;20412;-77
2022/07/26 01:27:38;;;;;;;;;;;;;;;23.79;46.89;99627.97;1084181;54;19946;-77
2022/07/26 01:28:39;;;;;;;;;;;;;;;23.80;46.69;99632.38;1084776;39;20692;-77
2022/07/26 01:29:43;;;;;;;;;;;;;;;23.79;46.96;99630.72;1085480;54;19951;-77
2022/07/26 01:30:44;;;;;;;;;;;;;;;23.83;46.64;99639.22;1085293;54;19977;-78
2022/07/26 01:31:48;;;;;;;;;;;;;;;23.82;46.78;99634.84;1085224;54;20437;-79
2022/07/26 01:32:49;;;;;;;;;;;;;;;23.78;46.88;99637.22;1085152;54;19947;-79
2022/07/26 01:33:52;;;;;;;;;;;;;;;23.77;46.84;99632.84;1085197;54;19946;-79
2022/07/26 01:34:53;;;;;;;;;;;;;;;23.88;46.86;99633.03;1085054;47;19947;-78
2022/07/26 01:35:58;;;;;;;;;;;;;;;23.83;47.10;99634.59;1085078;54;19946;-79
2022/07/26 01:36:59;;;;;;;;;;;;;;;23.89;47.07;99629.25;1084843;54;19947;-79
2022/07/26 01:38:05;;;;;;;;;;;;;;;23.76;48.17;99636.63;1085451;54;20033;-78
2022/07/26 01:39:06;;;;;;;;;;;;;;;23.74;48.37;99637.97;1085004;54;19977;-77
2022/07/26 01:40:11;;;;;;;;;;;;;;;23.64;48.72;99638.56;1085075;54;19951;-77
2022/07/26 01:41:12;;;;;;;;;;;;;;;23.57;48.96;99637.88;1085194;54;19977;-77
2022/07/26 01:42:16;;;;;;;;;;;;;;;23.57;49.46;99638.69;1086182;39;20345;-77
2022/07/26 01:43:17;;;;;;;;;;;;;;;23.57;49.32;99640.59;1085390;54;19946;-77
2022/07/26 01:44:21;;;;;;;;;;;;;;;23.66;49.31;99641.88;1084803;54;19954;-78
2022/07/26 01:45:22;;;;;;;;;;;;;;;23.58;49.67;99637.63;1083701;54;19947;-79
2022/07/26 01:46:26;;;;;;;;;;;;;;;23.49;49.92;99648.09;1083941;47;19954;-77
2022/07/26 01:47:27;;;;;;;;;;;;;;;23.45;49.90;99646.91;1083749;54;19958;-77
2022/07/26 01:48:31;;;;;;;;;;;;;;;23.44;50.00;99642.50;1084080;39;20348;-77
2022/07/26 01:49:32;;;;;;;;;;;;;;;23.38;50.60;99648.13;1083741;54;19951;-77
2022/07/26 01:50:36;;;;;;;;;;;;;;;23.32;50.64;99649.91;1084944;39;20357;-77
2022/07/26 01:51:37;;;;;;;;;;;;;;;23.31;50.97;99646.34;1083717;54;19953;-78
2022/07/26 01:52:41;;;;;;;;;;;;;;;23.27;50.83;99642.44;1084269;39;20348;-78
2022/07/26 01:53:45;;;;;;;;;;;;;;;23.12;51.29;99648.34;1083968;54;19958;-77
2022/07/26 01:54:49;;;;;;;;;;;;;;;23.13;51.33;99655.44;1084140;54;20038;-78
2022/07/26 01:55:50;;;;;;;;;;;;;;;23.12;51.63;99647.50;1084105;54;19946;-78
2022/07/26 01:56:54;;;;;;;;;;;;;;;23.16;51.57;99649.50;1083944;54;19985;-78
2022/07/26 01:57:55;;;;;;;;;;;;;;;23.35;51.16;99644.78;1084083;54;19969;-77
2022/07/26 01:58:58;;;;;;;;;;;;;;;23.41;50.79;99648.47;1084183;54;19951;-78
2022/07/26 02:00:00;;;;;;;;;;;;;;;23.47;51.06;99650.22;1084835;39;20318;-77
2022/07/26 02:01:03;;;;;;;;;;;;;;;23.50;50.69;99647.03;1083666;54;19947;-77
2022/07/26 02:02:04;;;;;;;;;;;;;;;23.48;51.24;99649.16;1084161;54;19946;-78
2022/07/26 02:03:08;;;;;;;;;;;;;;;23.36;51.63;99649.19;1084302;54;19947;-77
2022/07/26 02:04:57;;;;;;;;;;;;;;;23.31;51.84;99645.50;1084192;39;20377;-78
2022/07/26 02:05:33;;;;;;;;;;;;;;;23.20;52.38;99642.56;1083657;54;19962;-78
2022/07/26 02:06:34;;;;;;;;;;;;;;;23.23;52.50;99648.59;1083641;54;19958;-78
2022/07/26 02:07:40;;;;;;;;;;;;;;;23.24;52.49;99644.81;1083968;54;19946;-77
2022/07/26 02:08:41;;;;;;;;;;;;;;;23.07;53.13;99656.38;1083715;54;19951;-78
2022/07/26 02:09:47;;;;;;;;;;;;;;;23.04;52.87;99649.50;1084382;54;19962;-78
2022/07/26 02:11:00;;;;;;;;;;;;;;;22.86;53.75;99642.28;1083794;54;20799;-78
2022/07/26 02:12:04;;;;;;;;;;;;;;;22.80;54.15;99651.41;1083643;54;20788;-77
2022/07/26 02:13:05;;;;;;;;;;;;;;;23.02;53.44;99645.38;1083683;54;19973;-78
2022/07/26 02:14:09;;;;;;;;;;;;;;;22.90;53.81;99645.38;1083726;54;19950;-77
2022/07/26 02:15:11;;;;;;;;;;;;;;;22.87;54.04;99651.28;1084046;54;19939;-78
2022/07/26 02:16:16;;;;;;;;;;;;;;;22.84;54.06;99647.16;1084611;39;20466;-79
2022/07/26 02:17:17;;;;;;;;;;;;;;;22.89;53.90;99649.97;1084580;39;20352;-79
2022/07/26 02:18:21;;;;;;;;;;;;;;;22.98;53.80;99641.44;1083916;54;19957;-79
2022/07/26 02:19:22;;;;;;;;;;;;;;;23.01;53.44;99641.00;1083895;54;19950;-77
2022/07/26 02:20:26;;;;;;;;;;;;;;;23.00;53.80;99647.50;1083776;54;19947;-79
2022/07/26 02:21:27;;;;;;;;;;;;;;;23.06;53.26;99643.81;1083898;54;19947;-78
2022/07/26 02:22:30;;;;;;;;;;;;;;;23.08;53.36;99638.16;1083831;54;19986;-77
2022/07/26 02:23:32;;;;;;;;;;;;;;;22.97;54.11;99645.25;1084414;39;20117;-77
2022/07/26 02:24:36;;;;;;;;;;;;;;;22.80;54.52;99645.94;1083894;54;20440;-78
2022/07/26 02:25:39;;;;;;;;;;;;;;;22.62;55.22;99637.88;1084061;54;19946;-78
2022/07/26 02:26:43;;;;;;;;;;;;;;;22.57;55.26;99653.03;1083915;54;20732;-77
2022/07/26 02:27:44;;;;;;;;;;;;;;;22.54;55.60;99653.50;1083904;54;19954;-78
2022/07/26 02:28:48;;;;;;;;;;;;;;;22.61;55.13;99656.13;1083949;54;20475;-77
2022/07/26 02:29:49;;;;;;;;;;;;;;;22.76;54.48;99647.50;1083989;54;20042;-78
2022/07/26 02:30:53;;;;;;;;;;;;;;;22.55;55.00;99649.72;1083801;54;19947;-77
2022/07/26 02:31:55;;;;;;;;;;;;;;;22.51;55.44;99653.94;1083678;54;19950;-78
2022/07/26 02:32:58;;;;;;;;;;;;;;;22.46;55.57;99656.56;1084941;39;20353;-78
2022/07/26 02:33:59;;;;;;;;;;;;;;;22.54;55.22;99658.94;1085137;39;20381;-80
2022/07/26 02:35:03;;;;;;;;;;;;;;;22.66;54.55;99656.22;1084247;54;19950;-78
2022/07/26 02:36:04;;;;;;;;;;;;;;;22.69;54.40;99655.78;1084270;54;19947;-77
2022/07/26 02:37:08;;;;;;;;;;;;;;;22.76;54.34;99655.66;1084177;47;20448;-78
2022/07/26 02:38:11;;;;;;;;;;;;;;;22.58;55.02;99654.66;1084398;39;20447;-77
2022/07/26 02:39:19;;;;;;;;;;;;;;;22.67;54.57;99651.63;1086178;54;19943;-85
2022/07/26 02:40:20;;;;;;;;;;;;;;;22.44;55.67;99659.50;1087515;54;19943;-84
2022/07/26 02:44:12;;;;;;;;;;;;;;;22.62;55.09;99656.94;1087519;54;19949;-85
2022/07/26 02:45:16;;;;;;;;;;;;;;;22.63;55.35;99648.53;1087766;54;19951;-84
2022/07/26 02:47:49;;;;;;;;;;;;;;;22.36;56.63;99645.38;1087303;54;20737;-82
2022/07/26 02:48:50;;;;;;;;;;;;;;;22.23;57.17;99651.84;1087727;54;19934;-81
2022/07/26 02:49:53;;;;;;;;;;;;;;;22.32;57.05;99652.31;1087824;54;19949;-80
2022/07/26 02:50:55;;;;;;;;;;;;;;;22.32;57.12;99650.44;1087723;54;19942;-80
2022/07/26 02:51:58;;;;;;;;;;;;;;;22.40;56.72;99654.75;1087757;54;19935;-80
2022/07/26 02:52:59;;;;;;;;;;;;;;;22.48;56.27;99649.00;1087759;54;19943;-80
2022/07/26 02:54:03;;;;;;;;;;;;;;;22.36;57.46;99657.06;1087787;54;19943;-80
2022/07/26 02:55:05;;;;;;;;;;;;;;;22.44;57.05;99653.22;1087773;47;20869;-81
2022/07/26 02:56:09;;;;;;;;;;;;;;;22.46;56.88;99658.44;1088856;39;20847;-81
2022/07/26 02:57:13;;;;;;;;;;;;;;;22.55;56.75;99652.44;1088255;54;19947;-81
2022/07/26 02:58:20;;;;;;;;;;;;;;;22.57;56.38;99655.75;1088089;54;20707;-79
2022/07/26 02:59:21;;;;;;;;;;;;;;;22.38;57.68;99648.69;1088135;54;20618;-79
2022/07/26 03:00:27;;;;;;;;;;;;;;;22.47;56.89;99649.19;1091500;31;20678;-80
2022/07/26 03:01:28;;;;;;;;;;;;;;;22.48;57.26;99649.00;1088124;54;19938;-80
2022/07/26 03:02:32;;;;;;;;;;;;;;;22.42;57.61;99649.91;1088126;54;20598;-81
2022/07/26 03:03:33;;;;;;;;;;;;;;;22.44;57.53;99647.78;1088041;54;19943;-80
2022/07/26 03:04:37;;;;;;;;;;;;;;;22.46;57.33;99642.94;1088148;54;19986;-80
2022/07/26 03:05:38;;;;;;;;;;;;;;;22.49;57.18;99645.19;1088137;54;19949;-80
2022/07/26 03:06:42;;;;;;;;;;;;;;;22.43;57.53;99646.94;1088162;54;19949;-79
2022/07/26 03:07:43;;;;;;;;;;;;;;;22.47;57.45;99647.31;1088054;54;19950;-80
2022/07/26 03:08:47;;;;;;;;;;;;;;;22.33;58.18;99641.22;1088173;54;19954;-80
2022/07/26 03:09:48;;;;;;;;;;;;;;;22.29;58.23;99640.81;1088149;54;21020;-80
2022/07/26 03:10:52;;;;;;;;;;;;;;;22.12;59.37;99648.84;1088130;54;19954;-80
2022/07/26 03:11:53;;;;;;;;;;;;;;;22.10;59.56;99655.59;1088134;54;19943;-81
2022/07/26 03:12:59;;;;;;;;;;;;;;;22.05;59.46;99656.28;1088113;54;19953;-80
2022/07/26 03:14:00;;;;;;;;;;;;;;;22.09;59.55;99651.19;1088116;54;19965;-83
2022/07/26 03:15:05;;;;;;;;;;;;;;;22.07;59.76;99664.19;1088107;54;19949;-80
2022/07/26 03:16:06;;;;;;;;;;;;;;;22.07;59.91;99651.41;1089673;46;19965;-80
2022/07/26 03:17:10;;;;;;;;;;;;;;;22.14;59.75;99659.47;1088205;54;20020;-79
2022/07/26 03:18:11;;;;;;;;;;;;;;;22.24;59.34;99661.66;1089411;39;20681;-81
2022/07/26 03:19:15;;;;;;;;;;;;;;;22.28;58.80;99654.69;1088070;54;19938;-80
2022/07/26 03:20:16;;;;;;;;;;;;;;;22.33;58.96;99656.72;1088106;54;19950;-79
2022/07/26 03:21:20;;;;;;;;;;;;;;;22.26;59.38;99663.09;1088112;54;19950;-80
2022/07/26 03:22:21;;;;;;;;;;;;;;;22.08;60.25;99672.13;1088097;54;19942;-79
2022/07/26 03:23:25;;;;;;;;;;;;;;;21.94;60.55;99676.91;1087981;54;19942;-79
2022/07/26 03:24:26;;;;;;;;;;;;;;;21.77;61.34;99671.25;1088092;54;19949;-81
2022/07/26 03:25:30;;;;;;;;;;;;;;;21.72;61.58;99673.84;1088097;54;19943;-81
2022/07/26 03:26:31;;;;;;;;;;;;;;;21.72;61.86;99667.56;1088045;54;19942;-81
2022/07/26 03:27:35;;;;;;;;;;;;;;;21.65;62.19;99679.34;1088108;54;19938;-79
2022/07/26 03:28:41;;;;;;;;;;;;;;;21.64;62.01;99672.25;1089158;46;19958;-80
2022/07/26 03:29:45;;;;;;;;;;;;;;;21.62;62.12;99682.53;1088125;54;19943;-81
2022/07/26 03:30:48;;;;;;;;;;;;;;;21.68;62.26;99674.50;1088071;54;19942;-82
2022/07/26 03:31:50;;;;;;;;;;;;;;;21.69;62.72;99671.56;1088111;54;19942;-81
2022/07/26 03:32:54;;;;;;;;;;;;;;;21.73;63.56;99670.06;1088964;39;20569;-79
2022/07/26 03:33:55;;;;;;;;;;;;;;;21.81;63.68;99671.66;1088063;54;19942;-79
2022/07/26 03:34:59;;;;;;;;;;;;;;;21.84;64.36;99671.16;1088068;47;20828;-79
2022/07/26 03:36:00;;;;;;;;;;;;;;;21.86;64.07;99668.25;1088066;54;19943;-81
2022/07/26 03:37:04;;;;;;;;;;;;;;;21.71;64.94;99671.34;1088084;54;19957;-83
2022/07/26 03:38:05;;;;;;;;;;;;;;;21.60;65.38;99672.91;1087979;54;19943;-78
2022/07/26 03:39:08;;;;;;;;;;;;;;;21.51;65.42;99677.81;1088068;54;19950;-81
2022/07/26 03:40:10;;;;;;;;;;;;;;;21.50;64.99;99670.72;1088057;54;19942;-82
2022/07/26 03:41:14;;;;;;;;;;;;;;;21.61;65.83;99666.44;1087947;54;19950;-79
2022/07/26 03:42:15;;;;;;;;;;;;;;;21.73;64.88;99675.50;1088094;54;19949;-81
2022/07/26 03:43:19;;;;;;;;;;;;;;;21.74;65.63;99670.88;1088475;39;21007;-82
2022/07/26 03:44:22;;;;;;;;;;;;;;;21.61;65.35;99671.88;1088017;54;19942;-79
2022/07/26 03:45:26;;;;;;;;;;;;;;;21.70;65.34;99673.22;1088175;46;19945;-80
2022/07/26 03:46:27;;;;;;;;;;;;;;;21.77;65.38;99675.88;1088041;54;19950;-82
2022/07/26 03:47:31;;;;;;;;;;;;;;;21.84;64.93;99667.63;1088046;54;19942;-81
2022/07/26 03:48:34;;;;;;;;;;;;;;;21.78;65.17;99677.53;1088073;47;19939;-83
2022/07/26 03:49:43;;;;;;;;;;;;;;;21.68;65.90;99671.78;1087993;54;20669;-80
2022/07/26 03:50:47;;;;;;;;;;;;;;;21.59;65.97;99680.25;1088068;54;19954;-80
2022/07/26 03:51:51;;;;;;;;;;;;;;;21.72;65.39;99667.56;1087998;54;19943;-79
2022/07/26 03:52:52;;;;;;;;;;;;;;;21.79;65.15;99671.84;1087943;54;19943;-78
2022/07/26 03:53:56;;;;;;;;;;;;;;;21.79;65.62;99673.75;1089762;46;19978;-82
2022/07/26 03:54:57;;;;;;;;;;;;;;;21.86;64.51;99671.78;1088061;54;19943;-84
2022/07/26 03:57:17;;;;;;;;;;;;;;;21.68;66.48;99677.22;1087994;54;20986;-85
2022/07/26 03:58:18;;;;;;;;;;;;;;;21.62;67.17;99677.09;1088026;54;19943;-85
2022/07/26 03:59:26;;;;;;;;;;;;;;;21.53;66.65;99681.16;1087993;54;19943;-83
2022/07/26 04:00:27;;;;;;;;;;;;;;;21.47;66.55;99679.31;1088001;54;19943;-86
2022/07/26 04:01:31;;;;;;;;;;;;;;;21.47;66.50;99676.59;1088303;46;20650;-84
2022/07/26 04:02:32;;;;;;;;;;;;;;;21.49;66.71;99672.59;1088037;54;19942;-83
2022/07/26 04:03:36;;;;;;;;;;;;;;;21.56;67.02;99680.66;1087891;54;19950;-84
2022/07/26 04:04:37;;;;;;;;;;;;;;;21.62;66.39;99682.53;1087940;54;19943;-83
2022/07/26 04:05:41;;;;;;;;;;;;;;;21.59;65.65;99680.25;1088033;54;21010;-84
2022/07/26 04:06:43;;;;;;;;;;;;;;;21.59;66.16;99685.69;1090204;39;20592;-80
2022/07/26 04:07:48;;;;;;;;;;;;;;;21.62;65.62;99693.41;1090029;39;20511;-82
2022/07/26 04:08:49;;;;;;;;;;;;;;;21.72;65.55;99689.34;1087954;54;19950;-84
2022/07/26 04:09:53;;;;;;;;;;;;;;;21.66;66.11;99686.44;1088079;54;19945;-85
2022/07/26 04:10:54;;;;;;;;;;;;;;;21.66;65.78;99686.44;1088026;54;19942;-83
2022/07/26 04:11:58;;;;;;;;;;;;;;;21.73;67.06;99680.09;1088002;54;19990;-84
2022/07/26 04:13:05;;;;;;;;;;;;;;;21.72;65.89;99683.91;1087989;54;19942;-79
2022/07/26 04:14:17;;;;;;;;;;;;;;;21.80;65.12;99675.44;1088371;46;19946;-84
2022/07/26 04:15:24;;;;;;;;;;;;;;;21.79;65.54;99688.19;1088026;54;19942;-86
2022/07/26 04:16:59;;;;;;;;;;;;;;;21.88;64.65;99682.44;1089422;39;20245;-84
2022/07/26 04:18:12;;;;;;;;;;;;;;;21.80;66.16;99686.31;1087973;54;19950;-84
2022/07/26 04:19:47;;;;;;;;;;;;;;;21.70;65.56;99680.56;1087964;54;19975;-86
2022/07/26 04:28:12;;;;;;;;;;;;;;;21.44;65.18;99685.22;1090621;39;20817;-86
2022/07/26 04:55:15;;;;;;;;;;;;;;;21.12;66.00;99707.03;1089983;54;19922;-85
2022/07/26 05:38:21;;;;;;;;;;;;;;;;;;;;;
2022/07/26 05:39:24;;;;;;;;;;;;;;;21.78;62.11;99730.03;1088881;54;19939;-80
2022/07/26 05:42:16;;;;;;;;;;;;;;;21.85;61.95;99731.88;1088409;54;19943;-82
2022/07/26 05:48:13;;;;;;;;;;;;;;;21.90;60.56;99726.56;1087558;54;19965;-82
2022/07/26 05:51:29;;;;;;;;;;;;;;;21.88;60.72;99725.94;1088349;46;19980;-79
2022/07/26 05:54:28;;;;;;;;;;;;;;;22.01;60.17;99735.88;1087393;54;19942;-82
2022/07/26 05:55:57;;;;;;;;;;;;;;;22.06;60.25;99736.00;1087607;54;19973;-80
2022/07/26 05:57:04;;;;;;;;;;;;;;;22.06;59.81;99736.00;1087992;54;20619;-80
2022/07/26 05:58:40;;;;;;;;;;;;;;;22.08;59.13;99737.44;1088040;54;19943;-80
2022/07/26 06:01:10;;;;;;;;;;;;;;;21.99;58.16;99740.72;1087935;54;19949;-83
2022/07/26 06:02:27;;;;;;;;;;;;;;;22.00;58.34;99745.09;1087885;54;19950;-80
2022/07/26 06:03:33;;;;;;;;;;;;;;;22.00;58.17;99735.03;1087931;54;19934;-81
2022/07/26 06:04:34;;;;;;;;;;;;;;;22.00;58.56;99742.38;1088107;54;20591;-79
2022/07/26 06:06:02;;;;;;;;;;;;;;;22.07;58.36;99740.41;1087871;54;20623;-81
2022/07/26 06:07:32;;;;;;;;;;;;;;;;;;;;;
2022/07/26 06:08:38;;;;;;;;;;;;;;;22.14;58.34;99738.41;1087783;46;20942;-79
2022/07/26 06:09:44;;;;;;;;;;;;;;;22.02;58.37;99737.50;1088075;54;20010;-79
2022/07/26 06:10:53;;;;;;;;;;;;;;;22.03;58.45;99737.31;1087963;54;19934;-80
2022/07/26 06:13:28;;;;;;;;;;;;;;;22.14;58.44;99735.69;1087786;46;19966;-80
2022/07/26 06:15:54;;;;;;;;;;;;;;;21.96;58.50;99737.38;1087599;54;19965;-79
2022/07/26 06:17:16;;;;;;;;;;;;;;;21.92;57.96;99732.63;1087675;54;19967;-81
2022/07/26 06:19:26;;;;;;;;;;;;;;;22.11;58.13;99725.25;1087872;54;19967;-84
2022/07/26 06:20:27;;;;;;;;;;;;;;;22.11;57.50;99725.25;1087958;54;20626;-83
2022/07/26 06:21:37;;;;;;;;;;;;;;;22.17;57.78;99729.81;1088064;54;20633;-84
2022/07/26 06:22:46;;;;;;;;;;;;;;;22.08;57.01;99736.63;1087583;54;19939;-85
2022/07/26 06:25:26;;;;;;;;;;;;;;;22.11;56.96;99726.09;1087547;54;20015;-82
2022/07/26 06:26:31;;;;;;;;;;;;;;;22.21;56.52;99728.28;1087568;54;19959;-84
2022/07/26 06:29:19;;;;;;;;;;;;;;;22.12;56.13;99735.09;1088378;39;20182;-84
2022/07/26 06:32:34;;;;;;;;;;;;;;;22.21;55.77;99730.19;1088472;46;19991;-83
2022/07/26 06:33:50;;;;;;;;;;;;;;;22.20;55.57;99731.22;1087994;54;19938;-83
2022/07/26 06:36:12;;;;;;;;;;;;;;;22.37;55.34;99734.16;1087873;54;19938;-82
2022/07/26 06:37:27;;;;;;;;;;;;;;;22.37;54.60;99734.16;1088004;54;19943;-83
2022/07/26 06:40:39;;;;;;;;;;;;;;;22.37;54.72;99731.44;1088084;54;19943;-85
2022/07/26 06:45:08;;;;;;;;;;;;;;;22.50;53.71;99736.72;1087768;54;20011;-83
2022/07/26 06:46:23;;;;;;;;;;;;;;;22.62;53.41;99730.47;1087521;54;20006;-83
2022/07/26 06:47:42;;;;;;;;;;;;;;;22.54;53.26;99737.06;1087456;54;20007;-84
2022/07/26 06:50:38;;;;;;;;;;;;;;;22.56;53.41;99733.09;1087590;54;19943;-83
2022/07/26 06:51:50;;;;;;;;;;;;;;;22.64;53.64;99733.81;1087637;54;19950;-83
2022/07/26 06:52:55;;;;;;;;;;;;;;;22.66;53.78;99731.69;1087626;54;19962;-83
2022/07/26 06:54:33;;;;;;;;;;;;;;;22.63;53.92;99732.97;1087425;54;20977;-82
2022/07/26 06:55:41;;;;;;;;;;;;;;;22.60;53.85;99733.44;1087649;54;20006;-84
2022/07/26 06:56:42;;;;;;;;;;;;;;;22.68;53.56;99744.00;1091617;39;21066;-83
2022/07/26 06:58:11;;;;;;;;;;;;;;;22.71;53.38;99734.53;1087544;54;19943;-82
2022/07/26 06:59:25;;;;;;;;;;;;;;;22.89;52.80;99739.09;1088707;46;20662;-83
2022/07/26 07:00:27;;;;;;;;;;;;;;;22.92;52.47;99741.31;1087386;54;19954;-85
2022/07/26 07:01:31;;;;;;;;;;;;;;;23.00;52.25;99743.72;1087836;39;20714;-84
2022/07/26 07:02:35;;;;;;;;;;;;;;;22.95;52.31;99740.88;1087577;54;20011;-82
2022/07/26 07:05:17;;;;;;;;;;;;;;;22.99;52.12;99739.34;1087461;54;19943;-83
2022/07/26 07:06:28;;;;;;;;;;;;;;;22.92;52.43;99737.78;1087556;54;19933;-82
2022/07/26 07:07:29;;;;;;;;;;;;;;;22.95;52.24;99737.31;1087416;54;20572;-83
2022/07/26 07:08:35;;;;;;;;;;;;;;;22.96;51.62;99741.69;1087427;54;19942;-81
2022/07/26 07:09:36;;;;;;;;;;;;;;;23.04;51.27;99744.09;1087512;54;20572;-84
2022/07/26 07:10:49;;;;;;;;;;;;;;;22.98;50.25;99745.00;1087511;54;19950;-82
2022/07/26 07:12:02;;;;;;;;;;;;;;;;;;;;;
2022/07/26 07:13:12;;;;;;;;;;;;;;;22.93;49.82;99744.91;1087555;54;19938;-82
2022/07/26 07:14:19;;;;;;;;;;;;;;;22.95;49.93;99745.50;1087468;54;20758;-82
2022/07/26 07:15:43;;;;;;;;;;;;;;;22.84;50.05;99734.34;1088597;46;20009;-83
2022/07/26 07:16:47;;;;;;;;;;;;;;;22.87;49.43;99739.31;1087621;54;19939;-83
2022/07/26 07:17:56;;;;;;;;;;;;;;;23.00;48.98;99732.00;1087573;54;19942;-83
2022/07/26 07:19:09;;;;;;;;;;;;;;;23.01;48.39;99734.47;1087184;54;20808;-84
2022/07/26 07:21:45;;;;;;;;;;;;;;;23.24;48.80;99727.44;1088037;54;19965;-82
2022/07/26 07:22:51;;;;;;;;;;;;;;;23.48;48.36;99732.88;1088018;54;19935;-82
2022/07/26 07:23:52;;;;;;;;;;;;;;;23.56;48.56;99731.69;1088724;46;19958;-83
2022/07/26 07:25:26;;;;;;;;;;;;;;;23.43;48.42;99739.03;1089506;46;19939;-84
2022/07/26 07:26:49;;;;;;;;;;;;;;;23.79;47.87;99728.09;1087834;54;19943;-82
2022/07/26 07:31:05;;;;;;;;;;;;;;;24.03;46.69;99734.38;1087497;54;20010;-82
2022/07/26 07:32:09;;;;;;;;;;;;;;;24.10;46.52;99732.31;1087381;54;19958;-82
2022/07/26 07:33:17;;;;;;;;;;;;;;;24.30;46.70;99744.72;1087435;54;19959;-82
2022/07/26 07:34:21;;;;;;;;;;;;;;;24.12;47.04;99743.84;1092572;39;20288;-83
2022/07/26 07:35:28;;;;;;;;;;;;;;;24.17;46.68;99739.56;1087480;54;19942;-84
2022/07/26 07:36:50;;;;;;;;;;;;;;;24.06;47.23;99744.81;1088930;39;20607;-84
2022/07/26 07:38:02;;;;;;;;;;;;;;;23.91;47.44;99741.72;1087444;54;19966;-82
2022/07/26 07:39:03;;;;;;;;;;;;;;;24.07;47.33;99743.75;1087506;54;19943;-83